Garin, Argentina
Current Conditions -  °F | °C
As of 5:00 PM on Sunday 25 Jan 2015 (Local Time) from SADF Reporting Station
Clear Clear  
Wind Chill: 31°   Ceiling: Unl
Heat Index: 32°   Visibility: 6mi
Dew Point: 19°   Wind: 9mph
Humidity: 49%   Direction: 50°NE
Pressure: 29.77"   Gusts: NA
Location:  34.43°S, 58.73°W
Report Text: SADF 252000Z 05008KT CAVOK 31/19 Q1008
Loading
Personal Weather Stations






























Interactive Weather Map New forecast layout! Learn more

10-Day Weather Forecast

Advertisements
Track Severe Weather on mobile